createdAt,value
2023-03-13T00:04:53.562Z,11.16
2023-03-13T00:14:53.568Z,11.32
2023-03-13T00:24:53.587Z,11.47
2023-03-13T00:34:53.554Z,11.59
2023-03-13T00:44:53.563Z,11.65
2023-03-13T00:54:53.585Z,11.65
2023-03-13T01:04:54.033Z,11.56
2023-03-13T01:14:56.041Z,11.43
2023-03-13T01:24:56.781Z,11.31
2023-03-13T01:34:58.545Z,11.24
2023-03-13T01:44:59.809Z,11.22
2023-03-13T01:55:00.552Z,11.26
2023-03-13T02:05:00.685Z,11.31
2023-03-13T02:15:00.774Z,11.38
2023-03-13T02:25:00.791Z,11.42
2023-03-13T02:35:00.753Z,11.42
2023-03-13T02:45:01.372Z,11.41
2023-03-13T02:55:01.831Z,11.39
2023-03-13T03:05:02.088Z,11.36
2023-03-13T03:15:03.941Z,11.33
2023-03-13T03:25:04.606Z,11.35
2023-03-13T03:35:05.001Z,11.41
2023-03-13T03:45:05.090Z,11.49
2023-03-13T03:55:05.628Z,11.59
2023-03-13T04:05:07.705Z,11.70
2023-03-13T04:15:08.060Z,11.79
2023-03-13T04:25:08.583Z,11.85
2023-03-13T04:35:10.852Z,11.91
2023-03-13T04:45:29.566Z,11.97
2023-03-13T04:55:48.354Z,12.01
2023-03-13T05:05:53.672Z,12.06
2023-03-13T05:16:12.791Z,12.13
2023-03-13T05:26:26.966Z,12.25
2023-03-13T05:36:45.536Z,12.42
2023-03-13T05:47:04.724Z,12.59
2023-03-13T05:57:09.864Z,12.75
2023-03-13T06:07:10.592Z,12.92
2023-03-13T06:17:14.038Z,13.08
2023-03-13T06:27:13.928Z,13.22
2023-03-13T06:37:14.432Z,13.35
2023-03-13T06:47:15.659Z,13.52
2023-03-13T06:57:16.049Z,13.73
2023-03-13T07:07:29.517Z,13.92
2023-03-13T07:17:18.158Z,14.09
2023-03-13T07:27:19.959Z,14.26
2023-03-13T07:37:20.044Z,14.39
2023-03-13T07:47:20.192Z,14.59
2023-03-13T07:57:20.064Z,14.84
2023-03-13T08:07:20.076Z,15.04
2023-03-13T08:17:20.122Z,15.14
2023-03-13T08:27:20.108Z,15.20
2023-03-13T08:37:20.130Z,15.28
2023-03-13T08:47:20.130Z,15.40
2023-03-13T08:57:20.245Z,15.57
2023-03-13T09:07:20.188Z,15.77
2023-03-13T09:17:20.197Z,16.02
2023-03-13T09:27:20.174Z,16.36
2023-03-13T09:37:20.308Z,16.74
2023-03-13T09:47:20.188Z,17.17
2023-03-13T09:57:20.262Z,17.36
2023-03-13T10:07:20.842Z,17.67
2023-03-13T10:17:21.253Z,18.44
2023-03-13T10:27:21.293Z,19.12
2023-03-13T10:37:21.312Z,19.39
2023-03-13T10:47:21.319Z,19.27
2023-03-13T10:57:21.537Z,19.04
2023-03-13T11:07:21.325Z,18.90
2023-03-13T11:17:21.342Z,18.76
2023-03-13T11:27:21.459Z,18.52
2023-03-13T11:37:21.346Z,18.40
2023-03-13T11:47:21.394Z,18.38
2023-03-13T11:57:21.506Z,18.69
2023-03-13T12:07:21.703Z,19.63
2023-03-13T12:17:21.547Z,20.42
2023-03-13T12:27:21.479Z,20.53
2023-03-13T12:37:21.433Z,20.56
2023-03-13T12:47:21.479Z,20.79
2023-03-13T12:57:21.532Z,20.67
2023-03-13T13:07:21.469Z,20.39
2023-03-13T13:17:24.256Z,20.23
2023-03-13T13:27:24.567Z,20.10
2023-03-13T13:37:24.553Z,20.17
2023-03-13T13:47:24.569Z,20.26
2023-03-13T13:57:24.592Z,20.38
2023-03-13T14:07:24.588Z,20.61
2023-03-13T14:17:24.598Z,20.57
2023-03-13T14:27:24.648Z,20.30
2023-03-13T14:37:24.614Z,20.02
2023-03-13T14:47:24.775Z,19.67
2023-03-13T14:57:27.057Z,19.25
2023-03-13T15:07:27.114Z,18.95
2023-03-13T15:17:27.782Z,18.72
2023-03-13T15:27:27.948Z,18.61
2023-03-13T15:37:27.785Z,18.63
2023-03-13T15:47:27.691Z,18.72
2023-03-13T15:57:27.767Z,18.96
2023-03-13T16:07:29.925Z,19.32
2023-03-13T16:17:29.815Z,19.47
2023-03-13T16:27:30.002Z,19.24
2023-03-13T16:37:29.959Z,18.74
2023-03-13T16:47:33.539Z,18.06
2023-03-13T16:57:33.899Z,17.44
2023-03-13T17:07:35.607Z,16.85
2023-03-13T17:17:35.932Z,16.34
2023-03-13T17:27:37.652Z,15.99
2023-03-13T17:37:38.065Z,15.78
2023-03-13T17:47:37.912Z,15.68
2023-03-13T17:57:38.257Z,15.59
2023-03-13T18:07:40.746Z,15.41
2023-03-13T18:17:40.980Z,15.18
2023-03-13T18:27:40.458Z,14.95
2023-03-13T18:37:41.017Z,14.82
2023-03-13T18:47:41.279Z,14.82
2023-03-13T18:57:41.125Z,14.89
2023-03-13T19:07:41.078Z,14.93
2023-03-13T19:17:41.090Z,14.91
2023-03-13T19:27:41.177Z,14.82
2023-03-13T19:37:41.178Z,14.66
2023-03-13T19:47:41.558Z,14.44
2023-03-13T19:57:42.204Z,14.15
2023-03-13T20:07:42.162Z,13.79
2023-03-13T20:17:42.166Z,13.47
2023-03-13T20:27:42.270Z,13.23
2023-03-13T20:37:42.234Z,13.06
2023-03-13T20:47:42.164Z,12.90
2023-03-13T20:57:42.158Z,12.73
2023-03-13T21:07:42.194Z,12.54
2023-03-13T21:17:42.286Z,12.37
2023-03-13T21:27:43.769Z,12.24
2023-03-13T21:37:44.305Z,12.14
2023-03-13T21:47:44.220Z,12.04
2023-03-13T21:57:44.325Z,11.91
2023-03-13T22:07:44.957Z,11.91
2023-03-13T22:17:45.300Z,12.13
2023-03-13T22:27:45.348Z,12.39
2023-03-13T22:37:45.620Z,12.56
2023-03-13T22:47:45.353Z,12.59
2023-03-13T22:57:45.354Z,12.43
2023-03-13T23:07:45.417Z,12.18
2023-03-13T23:17:45.371Z,11.95
2023-03-13T23:27:45.332Z,11.88
2023-03-13T23:37:45.606Z,12.02
2023-03-13T23:47:45.491Z,12.19
2023-03-13T23:57:45.449Z,12.33
